createdAt,value
2023-01-09T00:02:11.418Z,5.10
2023-01-09T00:04:42.466Z,5.10
2023-01-09T00:07:10.483Z,4.30
2023-01-09T00:09:40.074Z,4.20
2023-01-09T00:12:08.377Z,4.20
2023-01-09T00:14:36.353Z,4.30
2023-01-09T00:17:04.368Z,4.30
2023-01-09T00:19:32.399Z,4.57
2023-01-09T00:22:00.375Z,3.87
2023-01-09T00:24:28.379Z,3.47
2023-01-09T00:26:57.701Z,4.43
2023-01-09T00:29:25.716Z,3.40
2023-01-09T00:31:53.902Z,4.80
2023-01-09T00:34:24.317Z,3.10
2023-01-09T00:36:55.096Z,3.80
2023-01-09T00:39:23.985Z,2.93
2023-01-09T00:41:58.533Z,2.40
2023-01-09T00:44:36.198Z,2.37
2023-01-09T00:47:10.941Z,2.47
2023-01-09T00:49:39.247Z,2.40
2023-01-09T00:52:10.833Z,3.00
2023-01-09T00:54:39.816Z,2.50
2023-01-09T00:57:08.234Z,2.53
2023-01-09T00:59:37.629Z,1.90
2023-01-09T01:02:05.785Z,2.27
2023-01-09T01:04:59.706Z,1.60
2023-01-09T01:07:39.868Z,1.50
2023-01-09T01:10:11.049Z,1.73
2023-01-09T01:12:39.798Z,1.20
2023-01-09T01:15:11.035Z,1.00
2023-01-09T01:17:41.248Z,1.20
2023-01-09T01:20:12.889Z,0.93
2023-01-09T01:22:42.389Z,0.70
2023-01-09T01:25:12.071Z,0.70
2023-01-09T01:27:40.124Z,0.93
2023-01-09T01:30:28.032Z,0.70
2023-01-09T01:32:56.231Z,0.80
2023-01-09T01:35:24.258Z,0.60
2023-01-09T01:37:52.273Z,0.73
2023-01-09T01:40:20.395Z,0.90
2023-01-09T01:42:48.731Z,0.60
2023-01-09T01:45:19.769Z,0.60
2023-01-09T01:47:53.793Z,0.53
2023-01-09T01:50:32.961Z,0.80
2023-01-09T01:53:07.430Z,0.70
2023-01-09T01:55:37.141Z,0.90
2023-01-09T01:58:08.693Z,0.50
2023-01-09T02:00:39.801Z,0.70
2023-01-09T02:03:09.651Z,0.63
2023-01-09T02:05:39.552Z,0.50
2023-01-09T02:08:08.113Z,0.63
2023-01-09T02:10:39.183Z,0.53
2023-01-09T02:13:08.180Z,0.50
2023-01-09T02:15:47.463Z,0.40
2023-01-09T02:18:41.504Z,0.50
2023-01-09T02:21:19.352Z,0.40
2023-01-09T02:24:30.329Z,0.60
2023-01-09T02:27:24.473Z,0.70
2023-01-09T02:30:24.934Z,0.40
2023-01-09T02:33:16.932Z,0.53
2023-01-09T02:35:57.122Z,0.50
2023-01-09T02:38:35.517Z,0.50
2023-01-09T02:41:09.546Z,0.80
2023-01-09T02:43:37.581Z,0.60
2023-01-09T02:46:07.179Z,0.53
2023-01-09T02:48:35.161Z,0.50
2023-01-09T02:51:11.848Z,0.50
2023-01-09T02:53:59.825Z,0.50
2023-01-09T02:56:53.026Z,0.40
2023-01-09T02:59:30.567Z,0.70
2023-01-09T03:02:13.654Z,0.60
2023-01-09T03:04:50.795Z,0.50
2023-01-09T03:07:24.549Z,0.40
2023-01-09T03:09:57.587Z,0.50
2023-01-09T03:12:29.220Z,0.70
2023-01-09T03:15:00.405Z,0.40
2023-01-09T03:17:35.539Z,0.67
2023-01-09T03:20:07.675Z,0.40
2023-01-09T03:22:35.771Z,0.70
2023-01-09T03:25:03.761Z,0.50
2023-01-09T03:27:31.844Z,0.80
2023-01-09T03:30:27.451Z,0.40
2023-01-09T03:32:57.363Z,0.60
2023-01-09T03:35:26.640Z,0.30
2023-01-09T03:37:55.043Z,0.30
2023-01-09T03:40:23.377Z,0.40
2023-01-09T03:42:51.327Z,0.40
2023-01-09T03:45:19.398Z,0.30
2023-01-09T03:47:47.392Z,0.40
2023-01-09T03:50:17.730Z,0.30
2023-01-09T03:52:45.913Z,0.40
2023-01-09T03:55:15.588Z,0.70
2023-01-09T03:57:44.055Z,0.30
2023-01-09T04:00:13.328Z,0.30
2023-01-09T04:02:41.287Z,0.30
2023-01-09T04:05:09.973Z,0.50
2023-01-09T04:07:39.611Z,0.30
2023-01-09T04:10:08.163Z,0.30
2023-01-09T04:12:36.139Z,0.37
2023-01-09T04:15:04.257Z,0.30
2023-01-09T04:17:32.262Z,0.43
2023-01-09T04:20:00.369Z,0.30
2023-01-09T04:22:28.388Z,0.40
2023-01-09T04:24:57.782Z,0.30
2023-01-09T04:27:25.758Z,0.30
2023-01-09T04:29:53.734Z,0.30
2023-01-09T04:32:21.699Z,0.30
2023-01-09T04:34:49.683Z,0.20
2023-01-09T04:37:17.689Z,0.30
2023-01-09T04:39:45.964Z,0.23
2023-01-09T04:42:15.246Z,0.30
2023-01-09T04:44:43.242Z,0.30
2023-01-09T04:47:13.529Z,0.30
2023-01-09T04:49:41.690Z,0.33
2023-01-09T04:52:09.751Z,0.40
2023-01-09T04:54:39.536Z,0.40
2023-01-09T04:57:07.806Z,0.30
2023-01-09T04:59:37.187Z,0.30
2023-01-09T05:02:05.281Z,0.30
2023-01-09T05:04:34.015Z,0.30
2023-01-09T05:07:02.359Z,0.30
2023-01-09T05:09:30.763Z,0.30
2023-01-09T05:12:00.497Z,0.30
2023-01-09T05:14:29.697Z,0.30
2023-01-09T05:16:59.047Z,0.37
2023-01-09T05:19:27.069Z,0.30
2023-01-09T05:21:55.365Z,1.03
2023-01-09T05:24:23.434Z,0.40
2023-01-09T05:26:51.471Z,0.90
2023-01-09T05:29:19.515Z,0.30
2023-01-09T05:31:47.548Z,0.30
2023-01-09T05:34:16.994Z,0.50
2023-01-09T05:36:45.060Z,1.13
2023-01-09T05:39:13.111Z,0.80
2023-01-09T05:41:41.160Z,0.53
2023-01-09T05:44:09.230Z,0.50
2023-01-09T05:46:38.307Z,0.40
2023-01-09T05:49:06.415Z,0.47
2023-01-09T05:51:35.831Z,0.40
2023-01-09T05:54:06.587Z,0.77
2023-01-09T05:56:34.814Z,0.50
2023-01-09T05:59:02.836Z,0.50
2023-01-09T06:01:30.870Z,0.43
2023-01-09T06:03:58.981Z,0.40
2023-01-09T06:06:27.111Z,0.80
2023-01-09T06:08:56.483Z,0.40
2023-01-09T06:11:24.495Z,0.47
2023-01-09T06:13:52.494Z,0.50
2023-01-09T06:16:20.609Z,0.47
2023-01-09T06:18:48.828Z,0.50
2023-01-09T06:21:17.109Z,0.50
2023-01-09T06:23:45.223Z,0.60
2023-01-09T06:26:14.816Z,0.60
2023-01-09T06:28:44.649Z,0.70
2023-01-09T06:31:13.328Z,0.43
2023-01-09T06:33:41.535Z,0.40
2023-01-09T06:36:10.286Z,0.60
2023-01-09T06:38:38.540Z,1.63
2023-01-09T06:41:06.830Z,3.40
2023-01-09T06:43:36.442Z,0.90
2023-01-09T06:46:05.642Z,0.50
2023-01-09T06:48:34.039Z,0.70
2023-01-09T06:51:02.242Z,0.47
2023-01-09T06:53:30.278Z,0.60
2023-01-09T06:55:58.365Z,0.73
2023-01-09T06:58:26.403Z,0.70
2023-01-09T07:00:56.253Z,0.83
2023-01-09T07:03:24.390Z,0.80
2023-01-09T07:05:52.717Z,0.77
2023-01-09T07:08:20.791Z,0.83
2023-01-09T07:10:48.732Z,1.30
2023-01-09T07:13:16.739Z,1.30
2023-01-09T07:15:44.811Z,0.90
2023-01-09T07:18:14.178Z,1.27
2023-01-09T07:20:42.486Z,0.87
2023-01-09T07:23:14.771Z,1.00
2023-01-09T07:25:43.728Z,1.00
2023-01-09T07:28:12.183Z,0.73
2023-01-09T07:30:40.183Z,0.70
2023-01-09T07:33:08.222Z,0.77
2023-01-09T07:35:37.660Z,1.07
2023-01-09T07:38:05.697Z,0.90
2023-01-09T07:40:34.594Z,1.30
2023-01-09T07:43:02.834Z,1.00
2023-01-09T07:45:30.876Z,0.90
2023-01-09T07:47:58.906Z,0.93
2023-01-09T07:50:27.007Z,1.00
2023-01-09T07:52:56.396Z,0.90
2023-01-09T07:55:24.442Z,0.60
2023-01-09T07:57:53.294Z,0.80
2023-01-09T08:00:22.092Z,0.50
2023-01-09T08:02:53.793Z,0.70
2023-01-09T08:05:22.696Z,0.53
2023-01-09T08:07:51.549Z,1.23
2023-01-09T08:10:25.790Z,0.70
2023-01-09T08:12:53.778Z,0.70
2023-01-09T08:15:22.015Z,0.80
2023-01-09T08:17:50.005Z,0.60
2023-01-09T08:20:19.011Z,0.80
2023-01-09T08:22:50.637Z,0.80
2023-01-09T08:25:20.657Z,0.60
2023-01-09T08:27:48.655Z,1.23
2023-01-09T08:30:17.374Z,0.77
2023-01-09T08:32:49.858Z,0.70
2023-01-09T08:35:17.988Z,0.60
2023-01-09T08:37:46.463Z,1.07
2023-01-09T08:40:15.565Z,0.63
2023-01-09T08:43:02.936Z,2.40
2023-01-09T08:45:49.172Z,0.67
2023-01-09T08:48:17.172Z,0.70
2023-01-09T08:50:46.603Z,0.60
2023-01-09T08:53:15.402Z,0.53
2023-01-09T08:55:43.560Z,1.00
2023-01-09T08:58:13.035Z,0.80
2023-01-09T09:00:41.019Z,0.70
2023-01-09T09:03:10.097Z,0.90
2023-01-09T09:05:38.160Z,0.60
2023-01-09T09:08:07.118Z,1.00
2023-01-09T09:10:35.234Z,0.53
2023-01-09T09:13:03.307Z,0.63
2023-01-09T09:15:34.313Z,0.90
2023-01-09T09:18:04.314Z,0.60
2023-01-09T09:20:34.320Z,0.80
2023-01-09T09:23:02.652Z,0.77
2023-01-09T09:25:30.828Z,1.27
2023-01-09T09:28:01.041Z,0.60
2023-01-09T09:30:29.272Z,0.70
2023-01-09T09:32:58.571Z,0.53
2023-01-09T09:35:28.594Z,0.60
2023-01-09T09:37:58.771Z,1.03
2023-01-09T09:40:49.405Z,0.83
2023-01-09T09:43:55.933Z,1.10
2023-01-09T09:46:33.139Z,1.00
2023-01-09T09:49:07.849Z,1.20
2023-01-09T09:52:03.379Z,0.80
2023-01-09T09:54:35.412Z,0.70
2023-01-09T09:57:05.669Z,1.43
2023-01-09T09:59:36.787Z,0.70
2023-01-09T10:02:15.421Z,0.90
2023-01-09T10:04:49.881Z,1.17
2023-01-09T10:07:24.168Z,0.57
2023-01-09T10:09:55.649Z,1.30
2023-01-09T10:12:29.946Z,0.60
2023-01-09T10:15:00.175Z,1.60
2023-01-09T10:17:41.633Z,0.70
2023-01-09T10:20:40.625Z,1.00
2023-01-09T10:23:27.426Z,1.10
2023-01-09T10:26:02.338Z,1.17
2023-01-09T10:29:03.687Z,0.80
2023-01-09T10:31:41.521Z,1.00
2023-01-09T10:34:21.938Z,1.00
2023-01-09T10:37:06.328Z,1.10
2023-01-09T10:39:40.952Z,0.70
2023-01-09T10:42:16.891Z,0.83
2023-01-09T10:44:50.791Z,0.80
2023-01-09T10:47:23.303Z,1.23
2023-01-09T10:49:53.671Z,0.80
2023-01-09T10:52:30.870Z,1.00
2023-01-09T10:55:06.252Z,0.77
2023-01-09T10:57:43.478Z,1.40
2023-01-09T11:00:23.187Z,1.00
2023-01-09T11:02:52.942Z,0.73
2023-01-09T11:05:23.418Z,0.90
2023-01-09T11:07:57.943Z,0.90
2023-01-09T11:10:46.179Z,1.03
2023-01-09T11:13:15.960Z,0.70
2023-01-09T11:15:43.967Z,0.73
2023-01-09T11:18:24.553Z,1.07
2023-01-09T11:20:53.274Z,0.97
2023-01-09T11:23:28.191Z,0.77
2023-01-09T11:25:57.716Z,1.00
2023-01-09T11:28:26.183Z,1.67
2023-01-09T11:31:00.966Z,1.53
2023-01-09T11:33:30.889Z,1.20
2023-01-09T11:36:04.055Z,1.80
2023-01-09T11:38:48.098Z,1.10
2023-01-09T11:41:20.030Z,1.10
2023-01-09T11:43:50.685Z,1.17
2023-01-09T11:46:35.641Z,0.70
2023-01-09T11:49:05.956Z,2.60
2023-01-09T11:51:36.817Z,0.97
2023-01-09T11:54:18.440Z,1.70
2023-01-09T11:56:48.109Z,0.70
2023-01-09T11:59:19.198Z,0.80
2023-01-09T12:02:20.859Z,0.87
2023-01-09T12:04:53.525Z,1.30
2023-01-09T12:08:03.041Z,1.73
2023-01-09T12:11:07.257Z,0.60
2023-01-09T12:13:51.186Z,1.10
2023-01-09T12:16:30.474Z,1.20
2023-01-09T12:19:18.821Z,0.77
2023-01-09T12:21:51.213Z,1.10
2023-01-09T12:24:45.075Z,2.60
2023-01-09T12:27:26.031Z,1.00
2023-01-09T12:30:08.805Z,1.30
2023-01-09T12:32:50.235Z,0.70
2023-01-09T12:35:30.905Z,0.80
2023-01-09T12:38:17.727Z,0.97
2023-01-09T12:41:11.110Z,1.00
2023-01-09T12:43:51.557Z,1.00
2023-01-09T12:46:22.582Z,1.07
2023-01-09T12:49:25.161Z,0.90
2023-01-09T12:52:01.177Z,0.80
2023-01-09T12:54:34.930Z,1.03
2023-01-09T12:57:06.983Z,0.50
2023-01-09T12:59:39.971Z,1.30
2023-01-09T13:02:19.552Z,1.20
2023-01-09T13:04:54.331Z,0.70
2023-01-09T13:07:27.307Z,0.80
2023-01-09T13:09:59.747Z,0.80
2023-01-09T13:12:33.239Z,0.70
2023-01-09T13:15:06.280Z,0.77
2023-01-09T13:17:41.506Z,1.73
2023-01-09T13:20:21.827Z,1.27
2023-01-09T13:22:52.366Z,0.87
2023-01-09T13:25:39.326Z,0.83
2023-01-09T13:28:14.051Z,0.87
2023-01-09T13:31:03.141Z,1.00
2023-01-09T13:33:35.415Z,0.60
2023-01-09T13:36:04.123Z,0.70
2023-01-09T13:38:34.922Z,0.60
2023-01-09T13:41:30.239Z,0.70
2023-01-09T13:44:01.335Z,0.60
2023-01-09T13:46:43.330Z,0.80
2023-01-09T13:49:51.256Z,0.57
2023-01-09T13:52:36.593Z,0.63
2023-01-09T13:55:30.025Z,0.40
2023-01-09T13:58:24.205Z,0.70
2023-01-09T14:00:58.585Z,0.67
2023-01-09T14:03:37.632Z,0.80
2023-01-09T14:06:22.317Z,0.60
2023-01-09T14:09:08.875Z,0.80
2023-01-09T14:11:37.090Z,0.50
2023-01-09T14:14:15.529Z,0.43
2023-01-09T14:16:43.713Z,0.40
2023-01-09T14:19:26.527Z,0.40
2023-01-09T14:21:58.083Z,0.33
2023-01-09T14:24:30.419Z,0.40
2023-01-09T14:26:59.694Z,0.80
2023-01-09T14:29:45.734Z,0.40
2023-01-09T14:32:43.261Z,0.70
2023-01-09T14:35:43.398Z,0.50
2023-01-09T14:38:29.815Z,0.50
2023-01-09T14:41:02.739Z,0.50
2023-01-09T14:43:43.906Z,0.50
2023-01-09T14:46:14.308Z,0.53
2023-01-09T14:48:53.211Z,0.50
2023-01-09T14:51:23.263Z,0.70
2023-01-09T14:53:54.001Z,0.63
2023-01-09T14:56:28.682Z,1.13
2023-01-09T14:59:07.707Z,0.50
2023-01-09T15:01:37.433Z,0.80
2023-01-09T15:04:08.971Z,0.87
2023-01-09T15:06:41.740Z,0.77
2023-01-09T15:09:29.551Z,0.50
2023-01-09T15:12:03.349Z,0.50
2023-01-09T15:14:38.016Z,0.60
2023-01-09T15:17:06.777Z,0.97
2023-01-09T15:19:35.390Z,0.50
2023-01-09T15:22:06.001Z,0.50
2023-01-09T15:24:35.809Z,0.70
2023-01-09T15:27:11.267Z,0.50
2023-01-09T15:29:39.428Z,1.00
2023-01-09T15:32:11.250Z,0.60
2023-01-09T15:34:44.193Z,0.60
2023-01-09T15:37:26.740Z,1.30
2023-01-09T15:39:57.495Z,0.90
2023-01-09T15:42:45.876Z,0.40
2023-01-09T15:45:19.394Z,0.80
2023-01-09T15:47:47.354Z,0.80
2023-01-09T15:50:17.045Z,1.10
2023-01-09T15:52:45.738Z,0.73
2023-01-09T15:55:35.585Z,0.70
2023-01-09T15:58:05.419Z,0.67
2023-01-09T16:00:43.946Z,0.70
2023-01-09T16:03:21.335Z,1.40
2023-01-09T16:05:53.260Z,0.80
2023-01-09T16:08:30.396Z,1.60
2023-01-09T16:11:03.630Z,0.63
2023-01-09T16:13:35.308Z,1.83
2023-01-09T16:16:04.297Z,1.17
2023-01-09T16:18:35.324Z,0.90
2023-01-09T16:21:21.925Z,1.10
2023-01-09T16:23:55.507Z,0.83
2023-01-09T16:26:26.900Z,1.10
2023-01-09T16:28:55.756Z,1.00
2023-01-09T16:31:26.948Z,1.00
2023-01-09T16:34:00.705Z,0.60
2023-01-09T16:36:29.629Z,1.20
2023-01-09T16:39:00.731Z,1.13
2023-01-09T16:41:48.323Z,1.20
2023-01-09T16:44:19.080Z,0.80
2023-01-09T16:46:47.299Z,1.00
2023-01-09T16:49:20.608Z,1.10
2023-01-09T16:51:48.780Z,1.00
2023-01-09T16:54:17.233Z,0.77
2023-01-09T16:56:49.434Z,0.90
2023-01-09T16:59:21.596Z,0.63
2023-01-09T17:01:50.332Z,0.63
2023-01-09T17:04:20.129Z,0.53
2023-01-09T17:06:49.683Z,0.77
2023-01-09T17:09:19.985Z,0.80
2023-01-09T17:11:49.728Z,0.70
2023-01-09T17:14:17.737Z,0.97
2023-01-09T17:16:46.769Z,0.60
2023-01-09T17:19:19.079Z,0.50
2023-01-09T17:21:47.586Z,0.77
2023-01-09T17:24:33.971Z,0.77
2023-01-09T17:27:21.604Z,0.70
2023-01-09T17:29:49.809Z,0.60
2023-01-09T17:32:19.386Z,0.80
2023-01-09T17:34:47.453Z,1.00
2023-01-09T17:37:16.592Z,0.73
2023-01-09T17:39:44.828Z,0.70
2023-01-09T17:42:14.218Z,0.80
2023-01-09T17:44:42.194Z,1.50
2023-01-09T17:47:15.228Z,0.90
2023-01-09T17:49:43.321Z,1.10
2023-01-09T17:52:11.451Z,1.10
2023-01-09T17:54:39.914Z,0.90
2023-01-09T17:57:08.652Z,0.67
2023-01-09T17:59:37.998Z,0.90
2023-01-09T18:02:07.170Z,0.70
2023-01-09T18:04:38.711Z,0.90
2023-01-09T18:07:06.712Z,0.80
2023-01-09T18:09:34.701Z,1.23
2023-01-09T18:12:02.673Z,1.10
2023-01-09T18:14:30.643Z,0.60
2023-01-09T18:17:00.076Z,0.87
2023-01-09T18:19:28.060Z,0.57
2023-01-09T18:21:56.257Z,0.60
2023-01-09T18:24:24.245Z,0.87
2023-01-09T18:26:52.382Z,0.93
2023-01-09T18:29:21.318Z,0.67
2023-01-09T18:31:49.489Z,0.70
2023-01-09T18:34:18.860Z,0.60
2023-01-09T18:36:47.278Z,0.80
2023-01-09T18:39:15.656Z,0.93
2023-01-09T18:41:43.759Z,1.00
2023-01-09T18:44:11.784Z,0.70
2023-01-09T18:46:40.808Z,0.93
2023-01-09T18:49:10.328Z,1.60
2023-01-09T18:51:39.725Z,0.90
2023-01-09T18:54:08.520Z,1.00
2023-01-09T18:56:36.873Z,0.70
2023-01-09T18:59:05.036Z,0.90
2023-01-09T19:01:33.288Z,0.90
2023-01-09T19:04:03.770Z,0.93
2023-01-09T19:06:32.431Z,0.90
2023-01-09T19:09:01.901Z,1.43
2023-01-09T19:11:30.039Z,0.80
2023-01-09T19:13:58.068Z,0.80
2023-01-09T19:16:26.095Z,1.10
2023-01-09T19:18:54.173Z,1.10
2023-01-09T19:21:26.711Z,1.30
2023-01-09T19:23:55.009Z,1.60
2023-01-09T19:26:26.036Z,1.37
2023-01-09T19:28:57.423Z,1.40
2023-01-09T19:31:28.291Z,1.50
2023-01-09T19:33:56.727Z,1.23
2023-01-09T19:36:24.975Z,1.20
2023-01-09T19:38:57.108Z,0.90
2023-01-09T19:41:27.015Z,1.00
2023-01-09T19:43:55.324Z,1.13
2023-01-09T19:46:25.222Z,1.60
2023-01-09T19:48:54.139Z,1.13
2023-01-09T19:51:23.362Z,1.90
2023-01-09T19:53:53.655Z,1.27
2023-01-09T19:56:23.957Z,0.97
2023-01-09T19:58:54.677Z,0.50
2023-01-09T20:01:24.676Z,0.70
2023-01-09T20:03:53.936Z,0.90
2023-01-09T20:06:24.868Z,0.60
2023-01-09T20:08:55.103Z,0.57
2023-01-09T20:11:23.618Z,0.83
2023-01-09T20:13:53.308Z,0.90
2023-01-09T20:16:23.455Z,0.63
2023-01-09T20:18:51.503Z,0.60
2023-01-09T20:23:51.350Z,0.87
2023-01-09T20:26:19.648Z,1.10
2023-01-09T20:28:48.651Z,1.07
2023-01-09T20:31:20.328Z,1.00
2023-01-09T20:33:49.594Z,0.93
2023-01-09T20:36:18.873Z,1.10
2023-01-09T20:38:47.046Z,0.90
2023-01-09T20:41:22.684Z,1.10
2023-01-09T20:43:51.103Z,1.20
2023-01-09T20:46:20.817Z,0.80
2023-01-09T20:48:49.561Z,0.80
2023-01-09T20:51:17.826Z,1.20
2023-01-09T20:53:46.737Z,1.00
2023-01-09T20:56:15.211Z,0.87
2023-01-09T20:58:43.243Z,0.70
2023-01-09T21:01:13.748Z,0.90
2023-01-09T21:03:43.627Z,1.10
2023-01-09T21:06:13.837Z,0.80
2023-01-09T21:08:43.019Z,0.60
2023-01-09T21:11:11.984Z,1.17
2023-01-09T21:13:40.837Z,0.83
2023-01-09T21:16:11.645Z,0.93
2023-01-09T21:18:40.198Z,1.00
2023-01-09T21:21:12.690Z,0.90
2023-01-09T21:23:42.389Z,0.97
2023-01-09T21:26:11.225Z,1.00
2023-01-09T21:28:45.991Z,1.20
2023-01-09T21:31:14.354Z,1.60
2023-01-09T21:33:42.655Z,1.20
2023-01-09T21:36:12.300Z,1.33
2023-01-09T21:38:40.303Z,1.40
2023-01-09T21:41:26.297Z,1.73
2023-01-09T21:44:11.899Z,2.00
2023-01-09T21:46:57.432Z,1.57
2023-01-09T21:49:27.020Z,1.30
2023-01-09T21:51:56.815Z,1.30
2023-01-09T21:54:25.527Z,1.17
2023-01-09T21:56:54.083Z,1.80
2023-01-09T21:59:22.336Z,1.13
2023-01-09T22:01:51.360Z,1.40
2023-01-09T22:04:22.838Z,1.40
2023-01-09T22:06:51.221Z,1.10
2023-01-09T22:09:20.698Z,1.60
2023-01-09T22:11:48.870Z,0.90
2023-01-09T22:14:18.843Z,1.33
2023-01-09T22:16:47.716Z,1.50
2023-01-09T22:19:17.908Z,1.00
2023-01-09T22:21:46.589Z,1.73
2023-01-09T22:24:16.184Z,1.23
2023-01-09T22:26:46.348Z,0.93
2023-01-09T22:29:16.025Z,1.30
2023-01-09T22:31:44.225Z,1.23
2023-01-09T22:34:15.696Z,1.07
2023-01-09T22:36:44.458Z,1.20
2023-01-09T22:39:14.247Z,1.70
2023-01-09T22:41:42.609Z,1.10
2023-01-09T22:44:13.406Z,1.33
2023-01-09T22:46:41.407Z,1.10
2023-01-09T22:49:11.964Z,1.20
2023-01-09T22:51:40.013Z,1.47
2023-01-09T22:54:08.138Z,1.50
2023-01-09T22:56:36.229Z,1.50
2023-01-09T22:59:04.358Z,1.63
2023-01-09T23:01:33.851Z,2.20
2023-01-09T23:04:03.664Z,1.50
2023-01-09T23:06:31.965Z,1.07
2023-01-09T23:09:01.461Z,1.53
2023-01-09T23:11:48.795Z,1.93
2023-01-09T23:14:17.701Z,1.47
2023-01-09T23:16:47.207Z,1.33
2023-01-09T23:19:15.650Z,1.10
2023-01-09T23:21:44.441Z,0.73
2023-01-09T23:24:13.823Z,0.97
2023-01-09T23:26:43.543Z,0.83
2023-01-09T23:29:12.566Z,0.40
2023-01-09T23:31:40.709Z,0.50
2023-01-09T23:34:13.738Z,0.57
2023-01-09T23:36:41.999Z,0.70
2023-01-09T23:39:10.109Z,0.60
2023-01-09T23:41:57.966Z,1.10
2023-01-09T23:44:25.989Z,0.90
2023-01-09T23:46:54.397Z,0.70
2023-01-09T23:49:23.781Z,0.60
2023-01-09T23:51:51.939Z,0.60
2023-01-09T23:54:19.924Z,0.57
2023-01-09T23:56:47.924Z,0.70
2023-01-09T23:59:17.593Z,0.80
